Current Weather

Prince Abdulmajeed Bin Abdula

Prince Abdulmajeed Bin Abdula, Saudi Arabia (OEAO)

Report from: Monday, May 23, 2022 7:00 AM UTC
Current time: Monday, May 23, 2022 8:01 AM UTC

Nearby weather
Weather history
Weather forecast

Temperature29.0°C (84.2°F)
Heat index27.4°C (81.4°F)
Dew point0.0°C (32.0°F)
Winds 14 kts (7.2 m/s, 16.1 mph) North (360°)
Clouds Sky clear
Altimeter29.88 in.Hg (1012 mB)
Relative humidity15 %
Density altitude1,747 ft. (533 m)
Remarks Ceiling and visibility OK
No significant changes expected in the next two hours
Flight conditions Visual Meteorological Conditions
Raw dataOEAO 230700Z 36014KT CAVOK 29/00 Q1012 NOSIG
An error has occurred. This application may no longer respond until reloaded. Reload 🗙